Time;durP1;ratioP1;P1;durP2;ratioP2;P2;SDS_P1;SDS_P2;PMS_P1;PMS_P2;Temp;Humidity;BMP_temperature;BMP_pressure;BME280_temperature;BME280_humidity;BME280_pressure;Samples;Min_cycle;Max_cycle;Signal;HPM_P1;HPM_P2
2021/07/06 00:00:09;;;;;;;14.73;13.00;;;17.10;99.90;;;;;;5075089;28;20048;-60
2021/07/06 00:02:35;;;;;;;16.15;13.20;;;17.10;99.90;;;;;;5074755;28;20063;-60
2021/07/06 00:05:01;;;;;;;15.57;13.10;;;17.10;99.90;;;;;;5074989;28;20033;-60
2021/07/06 00:07:27;;;;;;;15.52;12.57;;;17.10;99.90;;;;;;5074769;28;20068;-60
2021/07/06 00:09:53;;;;;;;16.02;12.85;;;17.10;99.90;;;;;;5074771;28;20094;-60
2021/07/06 00:12:19;;;;;;;14.52;12.70;;;17.10;99.90;;;;;;5074631;28;20486;-60
2021/07/06 00:14:46;;;;;;;14.38;12.55;;;17.10;99.90;;;;;;5074809;28;20075;-60
2021/07/06 00:17:12;;;;;;;12.50;11.25;;;17.10;99.90;;;;;;5074626;28;20037;-60
2021/07/06 00:19:37;;;;;;;13.40;12.02;;;17.10;99.90;;;;;;5074537;28;20072;-59
2021/07/06 00:22:04;;;;;;;12.70;11.32;;;17.10;99.90;;;;;;5074446;28;20098;-60
2021/07/06 00:24:30;;;;;;;12.15;10.85;;;17.10;99.90;;;;;;5074307;28;20496;-60
2021/07/06 00:26:56;;;;;;;15.23;10.75;;;17.10;99.90;;;;;;5074603;28;20131;-59
2021/07/06 00:29:22;;;;;;;12.20;11.00;;;17.10;99.90;;;;;;5074606;28;20040;-59
2021/07/06 00:31:48;;;;;;;12.52;10.50;;;17.00;99.90;;;;;;5074502;28;20076;-60
2021/07/06 00:34:14;;;;;;;13.55;11.60;;;17.00;99.90;;;;;;5074755;28;20825;-59
2021/07/06 00:36:40;;;;;;;12.85;11.13;;;17.00;99.90;;;;;;5074345;28;20090;-60
2021/07/06 00:39:06;;;;;;;12.45;10.65;;;17.10;99.90;;;;;;5074451;28;20044;-60
2021/07/06 00:41:34;;;;;;;14.73;11.15;;;17.00;99.90;;;;;;5074350;28;20055;-60
2021/07/06 00:44:00;;;;;;;13.95;11.65;;;17.10;99.90;;;;;;5074276;28;20048;-59
2021/07/06 00:46:26;;;;;;;12.75;11.07;;;17.00;99.90;;;;;;5074117;28;20045;-59
2021/07/06 00:48:52;;;;;;;13.02;10.27;;;17.00;99.90;;;;;;5072848;28;20044;-60
2021/07/06 00:51:18;;;;;;;14.82;10.93;;;16.90;99.90;;;;;;5074013;28;20060;-60
2021/07/06 00:53:45;;;;;;;12.63;11.10;;;17.00;99.90;;;;;;5074087;28;20433;-60
2021/07/06 00:56:10;;;;;;;12.02;10.95;;;17.00;99.90;;;;;;5074008;28;20043;-59
2021/07/06 00:58:37;;;;;;;14.02;10.23;;;17.00;99.90;;;;;;5073800;28;20040;-59
2021/07/06 01:01:03;;;;;;;15.52;12.10;;;17.00;99.90;;;;;;5073588;28;20071;-59
2021/07/06 01:03:32;;;;;;;12.65;10.98;;;17.00;99.90;;;;;;5073752;28;20417;-59
2021/07/06 01:05:59;;;;;;;12.60;11.00;;;17.00;99.90;;;;;;5074022;28;20040;-59
2021/07/06 01:08:24;;;;;;;13.10;11.13;;;17.00;99.90;;;;;;5073744;28;20041;-59
2021/07/06 01:10:52;;;;;;;15.40;11.20;;;17.00;99.90;;;;;;5073742;28;20123;-59
2021/07/06 01:13:19;;;;;;;15.82;11.75;;;17.00;99.90;;;;;;5073705;28;20451;-60
2021/07/06 01:15:45;;;;;;;13.00;11.65;;;16.90;99.90;;;;;;5073396;28;20045;-59
2021/07/06 01:18:16;;;;;;;15.48;11.90;;;16.90;99.90;;;;;;5073433;28;20367;-59
2021/07/06 01:20:45;;;;;;;15.43;11.70;;;17.00;99.90;;;;;;5073511;28;20097;-61
2021/07/06 01:23:11;;;;;;;12.48;11.05;;;16.90;99.90;;;;;;5073322;28;20498;-59
2021/07/06 01:25:39;;;;;;;15.18;11.05;;;17.00;99.90;;;;;;5073326;28;20036;-59
2021/07/06 01:28:05;;;;;;;13.88;11.98;;;16.90;99.90;;;;;;5072209;28;20036;-59
2021/07/06 01:30:32;;;;;;;12.38;11.07;;;16.90;99.90;;;;;;5073160;28;20110;-59
2021/07/06 01:32:59;;;;;;;13.13;11.75;;;17.00;99.90;;;;;;5073145;28;20497;-60
2021/07/06 01:35:25;;;;;;;13.63;11.27;;;17.00;99.90;;;;;;5073287;28;20051;-60
2021/07/06 01:37:54;;;;;;;12.23;11.05;;;17.00;99.90;;;;;;5073229;28;20500;-59
2021/07/06 01:40:22;;;;;;;16.17;11.43;;;17.00;99.90;;;;;;5072997;28;20044;-59
2021/07/06 01:42:48;;;;;;;13.63;11.13;;;17.00;99.90;;;;;;5072678;28;20482;-59
2021/07/06 01:45:17;;;;;;;15.35;12.63;;;17.00;99.90;;;;;;5072722;28;20044;-59
2021/07/06 01:47:45;;;;;;;16.25;12.38;;;17.00;99.90;;;;;;5072967;28;20045;-60
2021/07/06 01:50:14;;;;;;;12.00;10.68;;;17.00;99.90;;;;;;5073108;28;20461;-60
2021/07/06 01:52:47;;;;;;;13.93;11.52;;;17.10;99.90;;;;;;5072725;28;20140;-60
2021/07/06 01:55:19;;;;;;;13.95;12.20;;;17.10;99.90;;;;;;5072575;28;20044;-60
2021/07/06 01:57:46;;;;;;;13.52;12.20;;;17.10;99.90;;;;;;5072544;28;20086;-59
2021/07/06 02:00:16;;;;;;;15.20;11.32;;;17.20;99.90;;;;;;5072003;28;20039;-60
2021/07/06 02:02:43;;;;;;;14.80;10.93;;;17.10;99.90;;;;;;5072352;28;20458;-60
2021/07/06 02:05:18;;;;;;;16.77;11.73;;;17.10;99.90;;;;;;5072484;28;20052;-58
2021/07/06 02:07:44;;;;;;;17.00;10.75;;;17.20;99.90;;;;;;5072371;28;20064;-60
2021/07/06 02:10:13;;;;;;;12.35;10.95;;;17.20;99.90;;;;;;5072283;28;20044;-60
2021/07/06 02:12:39;;;;;;;14.68;11.15;;;17.20;99.90;;;;;;5072175;28;20054;-59
2021/07/06 02:15:08;;;;;;;13.02;11.23;;;17.20;99.90;;;;;;5072350;28;20083;-59
2021/07/06 02:17:34;;;;;;;11.95;10.77;;;17.20;99.90;;;;;;5072118;28;20086;-59
2021/07/06 02:20:00;;;;;;;13.15;10.82;;;17.10;99.90;;;;;;5072066;28;20048;-59
2021/07/06 02:22:26;;;;;;;14.88;10.95;;;17.10;99.90;;;;;;5072223;28;20053;-60
2021/07/06 02:24:51;;;;;;;11.88;10.52;;;17.10;99.90;;;;;;5072548;28;20040;-61
2021/07/06 02:27:17;;;;;;;16.88;10.55;;;17.10;99.90;;;;;;5072456;28;20051;-59
2021/07/06 02:29:43;;;;;;;11.85;10.68;;;17.10;99.90;;;;;;5072397;28;20338;-59
2021/07/06 02:32:09;;;;;;;11.65;10.55;;;17.20;99.90;;;;;;5072131;28;20048;-59
2021/07/06 02:34:35;;;;;;;11.88;10.63;;;17.10;99.90;;;;;;5071945;28;20044;-58
2021/07/06 02:37:01;;;;;;;12.95;10.35;;;17.10;99.90;;;;;;5071967;28;20139;-60
2021/07/06 02:39:27;;;;;;;12.82;10.60;;;17.10;99.90;;;;;;5071757;28;20127;-59
2021/07/06 02:41:52;;;;;;;12.70;10.32;;;17.10;99.90;;;;;;5071980;28;20467;-59
2021/07/06 02:44:18;;;;;;;14.70;10.07;;;17.10;99.90;;;;;;5071986;28;20514;-59
2021/07/06 02:46:44;;;;;;;10.85;9.70;;;17.20;99.90;;;;;;5071936;28;20045;-59
2021/07/06 02:49:10;;;;;;;10.85;9.40;;;17.20;99.90;;;;;;5071699;28;20166;-59
2021/07/06 02:51:35;;;;;;;11.80;10.00;;;17.20;99.90;;;;;;5071868;28;20041;-59
2021/07/06 02:54:02;;;;;;;12.48;10.00;;;17.20;99.90;;;;;;5071562;28;20060;-60
2021/07/06 02:56:29;;;;;;;11.07;9.30;;;17.20;99.90;;;;;;5071688;28;20074;-61
2021/07/06 02:58:55;;;;;;;12.57;9.23;;;17.20;99.90;;;;;;5072069;28;20054;-60
2021/07/06 03:01:21;;;;;;;10.65;9.35;;;17.20;99.90;;;;;;5071725;28;20036;-60
2021/07/06 03:03:47;;;;;;;10.55;8.90;;;17.30;99.90;;;;;;5071720;28;20049;-60
2021/07/06 03:06:12;;;;;;;11.57;9.13;;;17.30;99.90;;;;;;5071473;28;20082;-60
2021/07/06 03:08:38;;;;;;;8.98;7.90;;;17.30;99.90;;;;;;5071777;28;20094;-60
2021/07/06 03:11:04;;;;;;;9.60;8.13;;;17.30;99.90;;;;;;5071822;28;20398;-60
2021/07/06 03:13:30;;;;;;;10.30;8.52;;;17.30;99.90;;;;;;5075390;28;20075;-60
2021/07/06 03:15:56;;;;;;;11.43;7.72;;;17.30;99.90;;;;;;5076037;28;20107;-60
2021/07/06 03:18:22;;;;;;;9.13;7.82;;;17.20;99.90;;;;;;5075680;28;20067;-60
2021/07/06 03:20:48;;;;;;;8.93;7.65;;;17.30;99.90;;;;;;5075328;28;20051;-60
2021/07/06 03:23:16;;;;;;;7.93;7.13;;;17.30;99.90;;;;;;5075405;28;20471;-60
2021/07/06 03:25:43;;;;;;;9.30;6.70;;;17.30;99.90;;;;;;5075403;28;20471;-60
2021/07/06 03:28:10;;;;;;;8.45;7.22;;;17.30;99.90;;;;;;5075562;28;20048;-60
2021/07/06 03:30:36;;;;;;;7.13;6.43;;;17.30;99.90;;;;;;5075438;28;20036;-60
2021/07/06 03:33:05;;;;;;;8.85;7.13;;;17.30;99.90;;;;;;5075277;28;20045;-60
2021/07/06 03:35:30;;;;;;;7.10;6.22;;;17.30;99.90;;;;;;5075323;28;20040;-60
2021/07/06 03:37:57;;;;;;;10.73;6.95;;;17.30;99.90;;;;;;5075690;28;20056;-61
2021/07/06 03:40:22;;;;;;;14.32;7.00;;;17.30;99.90;;;;;;5075463;28;20494;-60
2021/07/06 03:42:49;;;;;;;9.23;6.80;;;17.30;99.90;;;;;;5075216;28;20131;-61
2021/07/06 03:45:16;;;;;;;7.53;6.72;;;17.30;99.90;;;;;;5075413;28;20051;-61
2021/07/06 03:47:42;;;;;;;6.95;6.03;;;17.30;99.90;;;;;;5075150;28;20065;-60
2021/07/06 03:50:11;;;;;;;9.45;5.95;;;17.30;99.90;;;;;;5074917;28;20052;-63
2021/07/06 03:52:37;;;;;;;;;;;17.30;99.90;;;;;;5075517;28;20105;-61
2021/07/06 03:55:06;;;;;;;8.30;6.13;;;17.40;99.90;;;;;;5074976;28;19927;-60
2021/07/06 03:57:32;;;;;;;7.07;6.40;;;17.40;99.90;;;;;;5074970;28;20439;-61
2021/07/06 04:00:00;;;;;;;6.93;6.22;;;17.40;99.90;;;;;;5074854;28;20162;-61
2021/07/06 04:02:26;;;;;;;8.40;6.72;;;17.40;99.90;;;;;;5074646;28;20044;-62
2021/07/06 04:04:52;;;;;;;7.65;6.40;;;17.40;99.90;;;;;;5074642;28;20049;-61
2021/07/06 04:07:18;;;;;;;7.38;6.05;;;17.50;99.90;;;;;;5074898;28;20062;-60
2021/07/06 04:09:45;;;;;;;9.90;6.97;;;17.50;99.90;;;;;;5074745;28;20406;-61
2021/07/06 04:12:11;;;;;;;7.72;6.15;;;17.40;99.90;;;;;;5074566;28;20094;-60
2021/07/06 04:14:37;;;;;;;8.45;6.20;;;17.50;99.90;;;;;;5073235;28;20045;-59
2021/07/06 04:17:03;;;;;;;10.57;6.38;;;17.50;99.90;;;;;;5074431;28;20047;-61
2021/07/06 04:19:29;;;;;;;7.30;6.15;;;17.50;99.90;;;;;;5074807;28;20066;-61
2021/07/06 04:21:54;;;;;;;6.60;5.43;;;17.60;99.90;;;;;;5074142;28;20074;-59
2021/07/06 04:24:20;;;;;;;6.93;5.55;;;17.60;99.90;;;;;;5074299;28;20458;-59
2021/07/06 04:26:46;;;;;;;8.77;5.45;;;17.60;99.90;;;;;;5074360;28;20090;-59
2021/07/06 04:29:12;;;;;;;7.75;5.15;;;17.70;99.90;;;;;;5074238;28;20040;-59
2021/07/06 04:31:38;;;;;;;8.32;5.40;;;17.70;99.90;;;;;;5074522;28;20406;-60
2021/07/06 04:34:04;;;;;;;5.53;4.90;;;17.70;99.90;;;;;;5072917;28;20055;-59
2021/07/06 04:36:30;;;;;;;5.68;5.03;;;17.70;99.90;;;;;;5072904;28;20405;-61
2021/07/06 04:38:56;;;;;;;7.05;5.15;;;17.70;99.90;;;;;;5074159;28;20090;-61
2021/07/06 04:41:22;;;;;;;6.70;4.90;;;17.70;99.90;;;;;;5073845;28;20082;-60
2021/07/06 04:43:48;;;;;;;5.93;4.95;;;17.80;99.90;;;;;;5074092;28;20060;-58
2021/07/06 04:46:15;;;;;;;5.30;4.80;;;17.80;99.90;;;;;;5074159;28;20098;-60
2021/07/06 04:48:41;;;;;;;9.25;4.70;;;17.80;99.90;;;;;;5074099;28;20082;-59
2021/07/06 04:51:09;;;;;;;5.85;4.47;;;17.90;99.90;;;;;;5073914;28;20062;-60
2021/07/06 04:53:36;;;;;;;5.68;4.60;;;17.80;99.90;;;;;;5074247;28;20048;-60
2021/07/06 04:56:03;;;;;;;5.70;4.73;;;17.90;99.90;;;;;;5074022;28;20057;-60
2021/07/06 04:58:29;;;;;;;6.88;4.72;;;17.90;99.90;;;;;;5074064;28;20130;-60
2021/07/06 05:00:56;;;;;;;8.75;3.95;;;17.90;99.90;;;;;;5073866;28;20040;-60
2021/07/06 05:03:22;;;;;;;4.63;4.07;;;17.90;99.90;;;;;;5073547;28;20051;-60
2021/07/06 05:05:48;;;;;;;6.10;3.72;;;18.00;99.90;;;;;;5073590;28;20086;-61
2021/07/06 05:08:15;;;;;;;6.80;3.70;;;18.00;99.90;;;;;;5073431;28;20036;-60
2021/07/06 05:10:40;;;;;;;5.75;3.80;;;18.10;99.90;;;;;;5073451;28;20394;-60
2021/07/06 05:13:06;;;;;;;4.43;3.42;;;18.10;99.90;;;;;;5073468;28;20048;-60
2021/07/06 05:15:32;;;;;;;3.95;3.50;;;18.10;99.90;;;;;;5073444;28;20045;-60
2021/07/06 05:17:57;;;;;;;3.47;3.17;;;18.10;99.90;;;;;;5073292;28;20049;-60
2021/07/06 05:20:23;;;;;;;4.15;3.22;;;18.20;99.90;;;;;;5073051;28;20033;-60
2021/07/06 05:22:49;;;;;;;6.25;2.75;;;18.30;99.90;;;;;;5073168;28;20490;-62
2021/07/06 05:25:15;;;;;;;3.88;2.78;;;18.40;99.90;;;;;;5073302;28;20049;-60
2021/07/06 05:27:42;;;;;;;3.95;2.80;;;18.40;99.90;;;;;;5073237;28;20056;-60
2021/07/06 05:30:09;;;;;;;6.07;2.60;;;18.40;99.90;;;;;;5073013;28;20036;-61
2021/07/06 05:32:38;;;;;;;7.10;2.60;;;18.60;99.90;;;;;;5071929;28;20045;-59
2021/07/06 05:35:05;;;;;;;3.83;2.30;;;18.80;99.90;;;;;;5072329;28;20045;-61
2021/07/06 05:37:31;;;;;;;4.45;2.15;;;18.90;99.90;;;;;;5073112;28;20067;-62
2021/07/06 05:39:57;;;;;;;2.45;1.80;;;19.10;99.90;;;;;;5072959;28;20386;-61
2021/07/06 05:42:23;;;;;;;2.30;1.67;;;19.10;99.90;;;;;;5072924;28;20052;-60
2021/07/06 05:44:49;;;;;;;3.15;2.08;;;19.10;99.90;;;;;;5072760;28;20426;-59
2021/07/06 05:47:15;;;;;;;5.30;1.80;;;19.10;99.90;;;;;;5072745;28;20039;-59
2021/07/06 05:49:41;;;;;;;2.08;1.58;;;19.10;99.90;;;;;;5072900;28;20041;-60
2021/07/06 05:52:07;;;;;;;4.68;1.35;;;19.00;99.90;;;;;;5072801;28;20051;-61
2021/07/06 05:54:32;;;;;;;9.50;1.67;;;19.00;99.90;;;;;;5072729;28;20055;-61
2021/07/06 05:57:00;;;;;;;7.00;1.45;;;18.90;99.90;;;;;;5072546;28;20048;-61
2021/07/06 05:59:25;;;;;;;3.38;1.20;;;19.00;99.90;;;;;;5072905;28;20041;-61
2021/07/06 06:01:51;;;;;;;4.22;1.33;;;19.00;99.90;;;;;;5072364;28;20470;-60
2021/07/06 06:04:17;;;;;;;3.35;1.20;;;18.90;99.90;;;;;;5072746;28;20866;-60
2021/07/06 06:06:43;;;;;;;3.28;1.20;;;19.00;99.90;;;;;;5072564;28;20045;-60
2021/07/06 06:09:09;;;;;;;1.10;1.00;;;18.90;99.90;;;;;;5071226;28;20041;-61
2021/07/06 06:11:35;;;;;;;3.92;1.27;;;18.90;99.90;;;;;;5072189;28;20456;-60
2021/07/06 06:14:00;;;;;;;1.98;1.08;;;18.80;99.90;;;;;;5072165;28;20044;-60
2021/07/06 06:16:26;;;;;;;2.80;0.80;;;18.90;99.90;;;;;;5072233;28;20039;-60
2021/07/06 06:18:55;;;;;;;2.92;1.10;;;18.90;99.90;;;;;;5072423;28;20487;-60
2021/07/06 06:21:26;;;;;;;3.42;1.05;;;18.90;99.90;;;;;;5071863;28;20056;-59
2021/07/06 06:23:52;;;;;;;2.83;1.30;;;19.00;99.90;;;;;;5072416;28;20529;-62
2021/07/06 06:26:18;;;;;;;3.38;1.23;;;19.00;99.90;;;;;;5072048;28;20040;-61
2021/07/06 06:28:44;;;;;;;7.00;1.10;;;19.00;99.90;;;;;;5071931;28;20045;-59
2021/07/06 06:31:10;;;;;;;1.77;1.00;;;19.10;99.90;;;;;;5072052;28;20041;-60
2021/07/06 06:33:36;;;;;;;2.40;1.20;;;19.10;99.90;;;;;;5071864;28;20041;-60
2021/07/06 06:36:02;;;;;;;3.25;1.13;;;19.10;99.90;;;;;;5065117;28;20037;-55
2021/07/06 06:38:27;;;;;;;5.00;1.27;;;19.10;99.90;;;;;;5051697;28;20109;-57
2021/07/06 06:40:53;;;;;;;1.33;0.93;;;19.10;99.90;;;;;;5050656;28;20597;-58
2021/07/06 06:43:19;;;;;;;7.40;1.13;;;19.10;99.90;;;;;;5051558;28;20051;-56
2021/07/06 06:45:48;;;;;;;3.15;1.17;;;19.10;99.90;;;;;;5051794;28;20157;-56
2021/07/06 06:48:14;;;;;;;6.47;1.40;;;19.10;99.90;;;;;;5051932;28;20045;-57
2021/07/06 06:50:39;;;;;;;3.42;1.45;;;19.10;99.90;;;;;;5051683;28;20037;-56
2021/07/06 06:53:05;;;;;;;4.32;1.40;;;19.10;99.90;;;;;;5051709;28;20076;-57
2021/07/06 06:55:31;;;;;;;2.55;1.23;;;19.10;99.90;;;;;;5051745;28;20045;-57
2021/07/06 06:57:58;;;;;;;1.55;1.05;;;19.20;99.90;;;;;;5051598;28;20057;-56
2021/07/06 07:00:24;;;;;;;1.52;0.98;;;19.10;99.90;;;;;;5051602;28;20479;-57
2021/07/06 07:02:53;;;;;;;1.33;1.23;;;19.10;99.90;;;;;;5051531;28;20132;-57
2021/07/06 07:05:19;;;;;;;2.83;1.35;;;19.20;99.90;;;;;;5051611;28;20077;-57
2021/07/06 07:07:45;;;;;;;2.90;1.70;;;19.20;99.90;;;;;;5051533;28;20060;-57
2021/07/06 07:10:11;;;;;;;4.65;1.20;;;19.20;99.90;;;;;;5051447;28;20045;-57
2021/07/06 07:12:39;;;;;;;4.43;1.23;;;19.20;99.90;;;;;;5051451;28;20052;-57
2021/07/06 07:15:10;;;;;;;1.42;1.15;;;19.30;99.90;;;;;;5051757;28;20109;-57
2021/07/06 07:17:36;;;;;;;2.75;1.27;;;19.30;99.90;;;;;;5051520;28;20064;-57
2021/07/06 07:20:05;;;;;;;3.35;1.58;;;19.30;99.90;;;;;;5051497;28;20045;-57
2021/07/06 07:22:31;;;;;;;;;;;19.30;99.90;;;;;;5051662;28;20060;-57
2021/07/06 07:24:57;;;;;;;1.75;1.10;;;19.40;99.90;;;;;;5051363;28;19917;-57
2021/07/06 07:27:22;;;;;;;3.28;1.23;;;19.40;99.90;;;;;;5051572;28;20068;-57
2021/07/06 07:29:48;;;;;;;3.25;1.33;;;19.40;99.90;;;;;;5051333;28;20540;-57
2021/07/06 07:32:15;;;;;;;2.10;1.33;;;19.50;99.90;;;;;;5051452;28;20094;-57
2021/07/06 07:34:42;;;;;;;7.03;1.35;;;19.50;99.90;;;;;;5051385;28;20143;-58
2021/07/06 07:37:08;;;;;;;5.70;1.48;;;19.50;99.90;;;;;;5051383;28;20072;-57
2021/07/06 07:39:34;;;;;;;1.80;1.42;;;19.50;99.90;;;;;;5051257;28;20478;-57
2021/07/06 07:42:03;;;;;;;1.85;1.52;;;19.60;99.90;;;;;;5051290;28;20056;-57
2021/07/06 07:44:29;;;;;;;5.82;1.60;;;19.60;99.90;;;;;;5051360;28;20075;-56
2021/07/06 07:46:54;;;;;;;4.03;1.27;;;19.60;99.90;;;;;;5051348;28;20453;-56
2021/07/06 07:49:20;;;;;;;3.25;1.67;;;19.70;99.90;;;;;;5051201;28;20448;-57
2021/07/06 07:51:46;;;;;;;3.28;1.73;;;19.70;99.90;;;;;;5051087;28;20056;-57
2021/07/06 07:54:12;;;;;;;5.57;1.50;;;19.80;99.90;;;;;;5051143;28;20430;-57
2021/07/06 07:56:40;;;;;;;3.13;1.80;;;19.80;99.90;;;;;;5051493;28;20040;-56
2021/07/06 07:59:08;;;;;;;4.97;2.08;;;19.80;99.90;;;;;;5054031;28;20072;-56
2021/07/06 08:01:34;;;;;;;3.25;1.60;;;19.90;99.90;;;;;;5054750;28;20033;-57
2021/07/06 08:03:59;;;;;;;4.32;1.80;;;20.00;99.90;;;;;;5055026;28;20045;-56
2021/07/06 08:06:25;;;;;;;4.75;1.73;;;20.00;99.90;;;;;;5054811;28;20052;-56
2021/07/06 08:08:51;;;;;;;4.45;2.05;;;20.00;99.90;;;;;;5054599;28;20060;-57
2021/07/06 08:11:16;;;;;;;3.53;1.77;;;20.10;99.90;;;;;;5054745;28;20044;-58
2021/07/06 08:13:42;;;;;;;5.03;1.83;;;20.10;99.90;;;;;;5054805;28;20053;-57
2021/07/06 08:16:08;;;;;;;3.47;2.45;;;20.20;99.90;;;;;;5054454;28;20441;-58
2021/07/06 08:18:34;;;;;;;3.55;1.63;;;20.20;99.90;;;;;;5054716;28;20373;-57
2021/07/06 08:21:00;;;;;;;6.47;1.70;;;20.30;99.90;;;;;;5054252;28;20052;-56
2021/07/06 08:23:25;;;;;;;9.07;2.15;;;20.40;99.90;;;;;;5054469;28;20087;-56
2021/07/06 08:25:52;;;;;;;7.60;1.75;;;20.40;99.90;;;;;;5054521;28;20056;-56
2021/07/06 08:28:22;;;;;;;4.28;1.40;;;20.50;99.90;;;;;;5054246;28;20517;-57
2021/07/06 08:30:49;;;;;;;5.43;1.63;;;20.50;99.90;;;;;;5054274;28;20471;-56
2021/07/06 08:33:15;;;;;;;5.07;1.73;;;20.50;99.90;;;;;;5054210;28;20504;-56
2021/07/06 08:35:41;;;;;;;4.10;1.70;;;20.60;99.90;;;;;;5053980;28;20063;-57
2021/07/06 08:38:07;;;;;;;7.07;1.90;;;20.60;99.90;;;;;;5054125;28;20079;-57
2021/07/06 08:40:32;;;;;;;6.50;1.88;;;20.60;99.90;;;;;;5054259;28;20076;-57
2021/07/06 08:43:01;;;;;;;4.18;1.85;;;20.70;99.90;;;;;;5054123;28;20483;-57
2021/07/06 08:45:28;;;;;;;3.45;1.42;;;20.70;99.90;;;;;;5054145;28;20048;-56
2021/07/06 08:47:55;;;;;;;7.15;1.75;;;20.60;99.90;;;;;;5053822;28;20543;-56
2021/07/06 08:50:22;;;;;;;3.67;1.75;;;20.60;99.90;;;;;;5053795;28;20040;-56
2021/07/06 08:52:48;;;;;;;3.50;1.60;;;20.60;99.90;;;;;;5054002;28;20041;-56
2021/07/06 08:55:15;;;;;;;3.67;1.67;;;20.60;99.90;;;;;;5053749;28;20095;-57
2021/07/06 08:57:42;;;;;;;1.80;1.60;;;20.50;99.90;;;;;;5053949;28;20049;-57
2021/07/06 09:00:11;;;;;;;7.60;1.60;;;20.50;99.90;;;;;;5053810;28;20060;-58
2021/07/06 09:02:37;;;;;;;2.28;1.40;;;20.50;99.90;;;;;;5053574;28;20498;-57
2021/07/06 09:05:04;;;;;;;7.68;1.90;;;20.50;99.90;;;;;;5053785;28;20049;-57
2021/07/06 09:07:42;;;;;;;4.18;2.05;;;20.50;99.90;;;;;;5053790;28;20119;-57
2021/07/06 09:10:16;;;;;;;3.65;1.60;;;20.50;99.90;;;;;;5052673;28;20446;-57
2021/07/06 09:12:44;;;;;;;3.22;1.85;;;20.50;99.90;;;;;;5053773;28;20072;-56
2021/07/06 09:15:27;;;;;;;2.38;1.55;;;20.60;99.90;;;;;;5053423;28;20132;-56
2021/07/06 09:18:08;;;;;;;5.85;1.65;;;20.80;99.90;;;;;;5053484;28;20040;-55
2021/07/06 09:20:35;;;;;;;4.60;1.58;;;21.30;99.90;;;;;;5053084;28;20044;-57
2021/07/06 09:23:22;;;;;;;5.82;2.03;;;21.50;99.90;;;;;;5053220;28;20398;-56
2021/07/06 09:26:06;;;;;;;3.53;1.60;;;21.60;99.90;;;;;;5053274;28;20044;-57
2021/07/06 09:28:34;;;;;;;3.50;1.52;;;21.60;99.90;;;;;;5053535;28;20041;-57
2021/07/06 09:31:20;;;;;;;3.70;1.27;;;21.50;99.90;;;;;;5053251;28;20124;-57
2021/07/06 09:34:00;;;;;;;3.10;1.23;;;21.40;99.90;;;;;;5053275;28;20083;-56
2021/07/06 09:36:27;;;;;;;4.38;1.70;;;21.40;99.90;;;;;;5053234;28;20060;-56
2021/07/06 09:39:05;;;;;;;4.68;1.80;;;21.40;99.90;;;;;;5052984;28;20045;-56
2021/07/06 09:41:31;;;;;;;5.50;1.50;;;21.60;99.90;;;;;;5052757;28;20402;-56
2021/07/06 09:44:20;;;;;;;2.25;1.10;;;21.70;99.90;;;;;;5052977;28;20051;-57
2021/07/06 09:46:48;;;;;;;10.10;1.57;;;22.00;99.90;;;;;;5052793;28;20080;-58
2021/07/06 09:49:16;;;;;;;5.63;1.50;;;22.30;99.90;;;;;;5053014;28;20041;-58
2021/07/06 09:51:42;;;;;;;2.22;1.40;;;22.40;99.90;;;;;;5052725;28;20074;-58
2021/07/06 09:54:08;;;;;;;6.75;1.58;;;22.50;99.90;;;;;;5052810;28;20049;-57
2021/07/06 09:56:41;;;;;;;5.30;1.30;;;22.60;99.90;;;;;;5052685;28;20106;-58
2021/07/06 09:59:07;;;;;;;4.03;1.40;;;22.80;99.90;;;;;;5052686;28;20090;-57
2021/07/06 10:01:34;;;;;;;4.72;1.15;;;22.80;99.90;;;;;;5052808;28;20045;-57
2021/07/06 10:03:59;;;;;;;6.70;1.80;;;22.80;99.90;;;;;;5052576;28;20045;-57
2021/07/06 10:06:27;;;;;;;9.25;1.20;;;22.80;99.90;;;;;;5052529;28;20051;-56
2021/07/06 10:08:55;;;;;;;1.70;0.98;;;23.10;99.90;;;;;;5052433;28;20029;-56
2021/07/06 10:11:22;;;;;;;1.08;0.80;;;23.40;99.90;;;;;;5052480;28;20099;-55
2021/07/06 10:13:48;;;;;;;3.20;1.05;;;23.30;99.90;;;;;;5052268;28;20510;-56
2021/07/06 10:16:15;;;;;;;6.03;1.15;;;23.40;99.90;;;;;;5052539;28;20430;-57
2021/07/06 10:18:42;;;;;;;3.30;1.10;;;23.30;99.90;;;;;;5052256;28;20048;-56
2021/07/06 10:21:07;;;;;;;1.90;1.00;;;23.40;99.90;;;;;;5051715;28;20057;-57
2021/07/06 10:23:34;;;;;;;4.82;1.42;;;23.40;99.90;;;;;;5052186;28;20384;-55
2021/07/06 10:26:03;;;;;;;3.65;1.20;;;23.40;99.90;;;;;;5052121;28;20041;-55
2021/07/06 10:28:30;;;;;;;7.55;1.45;;;23.20;99.90;;;;;;5051992;28;20037;-55
2021/07/06 10:31:15;;;;;;;2.13;1.10;;;22.90;99.90;;;;;;5051080;28;20134;-55
2021/07/06 10:33:42;;;;;;;12.80;2.42;;;22.50;99.90;;;;;;5052060;28;20072;-55
2021/07/06 10:36:09;;;;;;;10.40;2.15;;;22.20;99.90;;;;;;5052023;28;20071;-56
2021/07/06 10:38:39;;;;;;;7.13;2.13;;;21.30;99.90;;;;;;5051910;28;20045;-56
2021/07/06 10:41:13;;;;;;;6.22;1.38;;;21.00;99.90;;;;;;5052052;28;20041;-56
2021/07/06 10:43:42;;;;;;;4.43;1.90;;;20.60;99.90;;;;;;5051800;28;20048;-56
2021/07/06 10:46:16;;;;;;;4.03;1.42;;;20.40;99.90;;;;;;5051980;28;20044;-55
2021/07/06 10:48:46;;;;;;;7.50;1.60;;;20.20;99.90;;;;;;5051773;28;20483;-56
2021/07/06 10:51:42;;;;;;;8.50;1.63;;;20.00;99.90;;;;;;5051756;28;20045;-55
2021/07/06 10:54:17;;;;;;;7.70;1.83;;;20.00;99.90;;;;;;5051623;28;20471;-56
2021/07/06 10:56:51;;;;;;;6.78;1.70;;;19.90;99.90;;;;;;5051886;28;20159;-57
2021/07/06 10:59:27;;;;;;;2.63;1.63;;;20.30;99.90;;;;;;5050645;28;20140;-56
2021/07/06 11:01:59;;;;;;;6.35;1.27;;;20.50;99.90;;;;;;5051484;28;20045;-57
2021/07/06 11:04:42;;;;;;;11.73;1.63;;;20.90;99.90;;;;;;5051775;28;20123;-54
2021/07/06 11:07:30;;;;;;;5.22;1.10;;;21.30;99.90;;;;;;5051568;28;20129;-56
2021/07/06 11:09:56;;;;;;;4.30;1.35;;;21.70;99.90;;;;;;5051536;28;20045;-58
2021/07/06 11:12:26;;;;;;;6.50;1.15;;;22.00;99.90;;;;;;5051746;28;20090;-56
2021/07/06 11:14:57;;;;;;;3.28;1.50;;;22.40;99.90;;;;;;5051606;28;20386;-57
2021/07/06 11:17:39;;;;;;;2.33;1.00;;;22.70;99.90;;;;;;5051332;28;20085;-56
2021/07/06 11:20:11;;;;;;;5.05;1.20;;;23.10;99.90;;;;;;5051486;28;20041;-57
2021/07/06 11:22:45;;;;;;;3.92;1.30;;;23.20;99.90;;;;;;5051263;28;20403;-57
2021/07/06 11:25:25;;;;;;;7.20;2.05;;;23.30;99.90;;;;;;5051388;28;20033;-56
2021/07/06 11:28:04;;;;;;;6.35;1.30;;;23.60;99.90;;;;;;5051387;28;20037;-56
2021/07/06 11:30:31;;;;;;;3.67;1.10;;;23.80;99.90;;;;;;5051444;28;20045;-56
2021/07/06 11:33:14;;;;;;;6.25;1.50;;;23.80;99.90;;;;;;5052478;28;20575;-58
2021/07/06 11:35:43;;;;;;;3.45;1.42;;;23.80;99.90;;;;;;5055423;28;20457;-56
2021/07/06 11:38:18;;;;;;;3.65;1.00;;;24.10;99.90;;;;;;5055753;28;20061;-57
2021/07/06 11:40:46;;;;;;;4.22;1.00;;;24.10;99.90;;;;;;5055268;28;20044;-56
2021/07/06 11:43:17;;;;;;;7.22;1.00;;;24.20;99.90;;;;;;5055085;28;20045;-56
2021/07/06 11:45:56;;;;;;;4.95;1.00;;;24.00;99.90;;;;;;5055098;28;20094;-57
2021/07/06 11:48:27;;;;;;;3.72;1.27;;;24.10;99.90;;;;;;5055351;28;20041;-57
2021/07/06 11:50:54;;;;;;;6.18;1.05;;;24.30;99.90;;;;;;5055061;28;20037;-56
2021/07/06 11:53:24;;;;;;;5.95;1.17;;;24.30;99.90;;;;;;5054899;28;20041;-56
2021/07/06 11:55:51;;;;;;;4.30;1.20;;;24.20;99.90;;;;;;5054883;28;20044;-56
2021/07/06 11:58:22;;;;;;;6.20;1.27;;;23.90;99.90;;;;;;5054941;28;20040;-55
2021/07/06 12:00:48;;;;;;;8.82;1.50;;;23.70;99.90;;;;;;5055003;28;20059;-57
2021/07/06 12:03:19;;;;;;;7.00;1.40;;;23.60;99.90;;;;;;5054876;28;20060;-57
2021/07/06 12:05:50;;;;;;;4.65;1.67;;;23.40;99.90;;;;;;5054817;28;20086;-56
2021/07/06 12:08:28;;;;;;;2.38;0.90;;;23.20;99.90;;;;;;5053524;28;20037;-56
2021/07/06 12:10:57;;;;;;;5.15;1.30;;;23.20;99.90;;;;;;5054821;28;20033;-55
2021/07/06 12:13:24;;;;;;;7.63;1.20;;;23.20;99.90;;;;;;5054716;28;20102;-56
2021/07/06 12:15:51;;;;;;;6.65;1.30;;;23.50;99.90;;;;;;5054698;28;20041;-56
2021/07/06 12:18:17;;;;;;;4.55;1.13;;;23.50;99.90;;;;;;5054682;28;20040;-56
2021/07/06 12:20:57;;;;;;;7.22;1.20;;;23.70;99.90;;;;;;5054468;28;20498;-56
2021/07/06 12:23:23;;;;;;;5.03;1.10;;;23.60;99.90;;;;;;5054592;28;20091;-56
2021/07/06 12:25:49;;;;;;;4.82;1.20;;;23.60;99.90;;;;;;5054419;28;20099;-57
2021/07/06 12:28:18;;;;;;;11.07;1.75;;;23.50;99.90;;;;;;5054503;28;20118;-58
2021/07/06 12:30:43;;;;;;;3.63;1.00;;;23.40;99.90;;;;;;5054237;28;20124;-56
2021/07/06 12:33:09;;;;;;;9.50;1.08;;;23.30;99.90;;;;;;5054293;28;20136;-57
2021/07/06 12:35:36;;;;;;;4.90;0.90;;;23.20;99.90;;;;;;5054589;28;20643;-57
2021/07/06 12:38:03;;;;;;;9.43;1.05;;;23.10;99.90;;;;;;5054480;28;20045;-56
2021/07/06 12:40:30;;;;;;;2.72;1.08;;;23.10;99.90;;;;;;5053204;28;20524;-56
2021/07/06 12:42:56;;;;;;;3.22;0.75;;;23.10;99.90;;;;;;5054434;28;20052;-57
2021/07/06 12:45:31;;;;;;;5.60;0.95;;;23.20;99.90;;;;;;5054117;28;20049;-56